Time;durP1;ratioP1;P1;durP2;ratioP2;P2;SDS_P1;SDS_P2;PMS_P1;PMS_P2;Temp;Humidity;BMP_temperature;BMP_pressure;BME280_temperature;BME280_humidity;BME280_pressure;Samples;Min_cycle;Max_cycle;Signal;HPM_P1;HPM_P2
2022/12/06 00:01:09;;;;;;;;;;;;;;;-7.36;81.39;100954.02;106392;1300;139268;-59
2022/12/06 00:03:36;;;;;;;17.30;7.30;;;;;;;-7.30;81.35;100953.58;106545;1291;22109;-59
2022/12/06 00:06:05;;;;;;;18.50;7.50;;;;;;;-7.30;81.04;100959.10;106543;1301;22215;-59
2022/12/06 00:08:31;;;;;;;15.00;7.90;;;;;;;-7.30;81.04;100965.62;106418;1306;138634;-59
2022/12/06 00:11:02;;;;;;;;;;;;;;;-7.27;81.05;100963.85;106565;1297;22390;-57
2022/12/06 00:13:29;;;;;;;21.40;6.90;;;;;;;-7.25;81.12;100962.61;106466;1305;125062;-59
2022/12/06 00:15:59;;;;;;;14.90;6.40;;;;;;;-7.25;80.90;100962.06;106462;1307;22112;-59
2022/12/06 00:18:26;;;;;;;16.10;7.60;;;;;;;-7.23;80.74;100963.58;106384;1306;141115;-58
2022/12/06 00:20:53;;;;;;;13.50;6.50;;;;;;;-7.21;80.61;100964.08;106522;1305;22201;-59
2022/12/06 00:23:19;;;;;;;12.40;6.90;;;;;;;-7.19;80.89;100957.59;106528;1306;23201;-59
2022/12/06 00:25:46;;;;;;;15.60;7.10;;;;;;;-7.17;80.57;100959.91;106388;1289;138761;-59
2022/12/06 00:28:13;;;;;;;;;;;;;;;-7.17;80.60;100955.99;106538;1298;23193;-59
2022/12/06 00:30:39;;;;;;;14.80;6.90;;;;;;;-7.15;80.39;100954.83;106421;1298;125074;-58
2022/12/06 00:33:06;;;;;;;;;;;;;;;-7.16;80.17;100953.98;106513;1305;22355;-58
2022/12/06 00:35:33;;;;;;;11.80;6.60;;;;;;;-7.18;80.14;100946.39;106542;1305;22123;-57
2022/12/06 00:37:59;;;;;;;;;;;;;;;-7.17;80.00;100947.38;106398;1306;138846;-58
2022/12/06 00:40:26;;;;;;;15.50;7.60;;;;;;;-7.18;79.77;100945.47;106508;1293;22142;-59
2022/12/06 00:42:53;;;;;;;17.90;7.20;;;;;;;-7.18;79.58;100940.58;106415;1305;140114;-58
2022/12/06 00:45:20;;;;;;;;;;;;;;;-7.22;79.62;100940.65;106522;1306;22366;-58
2022/12/06 00:47:46;;;;;;;15.70;6.30;;;;;;;-7.21;79.40;100938.10;106512;1300;22158;-58
2022/12/06 00:50:13;;;;;;;;;;;;;;;-7.21;79.19;100931.74;106463;1304;138304;-58
2022/12/06 00:52:40;;;;;;;14.50;7.20;;;;;;;-7.21;79.12;100928.77;106542;1291;22171;-58
2022/12/06 00:55:07;;;;;;;15.50;7.40;;;;;;;-7.23;79.02;100928.73;106404;1307;139514;-58
2022/12/06 00:57:34;;;;;;;14.60;7.70;;;;;;;-7.23;78.94;100926.09;106565;1290;23386;-58
2022/12/06 01:00:00;;;;;;;13.20;6.20;;;;;;;-7.23;78.77;100925.91;106508;1306;22306;-58
2022/12/06 01:02:28;;;;;;;14.20;7.30;;;;;;;-7.22;78.79;100930.27;106455;1305;139499;-58
2022/12/06 01:04:55;;;;;;;;;;;;;;;-7.22;78.57;100925.84;106523;1306;22371;-58
2022/12/06 01:07:21;;;;;;;14.60;7.00;;;;;;;-7.22;78.39;100926.42;102541;1312;124790;-58
2022/12/06 01:09:48;;;;;;;;;;;;;;;-7.25;78.21;100930.65;102122;1293;22509;-58
2022/12/06 01:12:15;;;;;;;16.80;7.30;;;;;;;-7.28;78.09;100925.39;102049;1296;125274;-57
2022/12/06 01:14:42;;;;;;;;;;;;;;;-7.29;78.09;100924.45;102089;1301;22461;-58
2022/12/06 01:17:08;;;;;;;13.10;6.30;;;;;;;-7.33;78.08;100921.50;102230;1289;22477;-58
2022/12/06 01:19:35;;;;;;;9.90;6.40;;;;;;;-7.35;78.01;100917.59;101993;1291;139152;-57
2022/12/06 01:22:02;;;;;;;;;;;;;;;-7.36;77.78;100915.80;102334;1298;22566;-58
2022/12/06 01:24:29;;;;;;;10.70;5.70;;;;;;;-7.36;77.98;100913.65;102021;1291;124773;-57
2022/12/06 01:26:55;;;;;;;;;;;;;;;-7.36;77.81;100914.91;102173;1297;24372;-58
2022/12/06 01:29:22;;;;;;;12.30;5.60;;;;;;;-7.39;77.50;100908.36;102095;1313;25321;-58
2022/12/06 01:31:49;;;;;;;;;;;;;;;-7.40;77.57;100910.40;102124;1291;138763;-57
2022/12/06 01:34:16;;;;;;;9.30;5.30;;;;;;;-7.42;77.39;100906.52;101994;1291;26726;-58
2022/12/06 01:36:42;;;;;;;12.40;6.50;;;;;;;-7.44;77.46;100908.34;102047;1301;140377;-57
2022/12/06 01:39:09;;;;;;;10.80;5.60;;;;;;;-7.44;77.38;100899.60;102074;1300;24413;-57
2022/12/06 01:41:37;;;;;;;12.10;7.40;;;;;;;-7.45;77.37;100895.45;102089;1304;22555;-58
2022/12/06 01:44:04;;;;;;;13.00;6.30;;;;;;;-7.48;77.15;100895.09;106020;1309;138550;-58
2022/12/06 01:46:37;;;;;;;11.30;6.00;;;;;;;-7.50;77.25;100888.83;106492;1306;22121;-58
2022/12/06 01:49:09;;;;;;;16.00;6.60;;;;;;;-7.49;77.02;100882.61;106406;1306;138278;-58
2022/12/06 01:51:36;;;;;;;13.00;6.40;;;;;;;-7.48;77.02;100880.80;106461;1306;22137;-59
2022/12/06 01:54:03;;;;;;;13.10;6.70;;;;;;;-7.48;77.15;100877.74;106541;1305;23234;-59
2022/12/06 01:56:30;;;;;;;10.00;5.60;;;;;;;-7.47;77.04;100876.81;106439;1305;138201;-59
2022/12/06 01:58:57;;;;;;;13.60;5.90;;;;;;;-7.45;77.02;100875.09;106460;1293;22263;-57
2022/12/06 02:01:25;;;;;;;10.40;5.40;;;;;;;-7.43;77.01;100876.55;106244;1307;138367;-58
2022/12/06 02:03:53;;;;;;;18.20;7.40;;;;;;;-7.42;77.01;100873.48;106487;1305;22302;-57
2022/12/06 02:06:20;;;;;;;10.80;5.90;;;;;;;-7.40;76.88;100868.20;106233;1293;139088;-58
2022/12/06 02:08:47;;;;;;;;;;;;;;;-7.39;76.88;100864.98;106417;1303;23678;-58
2022/12/06 02:11:13;;;;;;;15.10;5.90;;;;;;;-7.39;76.76;100863.21;106392;1305;22204;-58
2022/12/06 02:13:40;;;;;;;13.30;5.80;;;;;;;-7.39;76.80;100862.17;106437;1305;138284;-58
2022/12/06 02:16:26;;;;;;;14.20;5.70;;;;;;;-7.39;76.75;100863.38;106517;1306;22319;-58
2022/12/06 02:18:54;;;;;;;10.50;5.70;;;;;;;-7.40;76.72;100854.14;106365;1289;138220;-59
2022/12/06 02:21:26;;;;;;;9.20;5.10;;;;;;;-7.42;76.57;100856.35;106515;1305;22121;-58
2022/12/06 02:24:23;;;;;;;11.10;6.10;;;;;;;-7.44;76.44;100857.91;106459;1309;22236;-58
2022/12/06 02:27:51;;;;;;;12.20;5.80;;;;;;;-7.43;76.33;100855.77;106503;1306;22421;-58
2022/12/06 02:30:42;;;;;;;15.90;6.40;;;;;;;-7.44;76.23;100853.52;105891;1297;138464;-58
2022/12/06 02:33:16;;;;;;;12.40;5.70;;;;;;;-7.45;76.28;100849.16;106035;1311;22315;-57
2022/12/06 02:35:53;;;;;;;16.70;6.50;;;;;;;-7.45;76.18;100847.42;104828;1307;22584;-59
2022/12/06 02:38:45;;;;;;;14.20;5.80;;;;;;;-7.45;76.21;100846.69;101362;1304;138152;-58
2022/12/06 02:41:43;;;;;;;10.60;5.40;;;;;;;-7.45;75.96;100842.16;101557;1319;23001;-57
2022/12/06 02:44:15;;;;;;;10.30;4.90;;;;;;;-7.49;75.90;100844.98;100671;1312;139603;-58
2022/12/06 02:46:42;;;;;;;14.30;6.00;;;;;;;-7.51;75.81;100842.35;100756;1312;23943;-58
2022/12/06 02:49:09;;;;;;;15.00;5.90;;;;;;;-7.58;75.86;100837.73;104942;1322;138280;-59
2022/12/06 02:51:36;;;;;;;15.30;5.50;;;;;;;-7.57;75.58;100844.04;105042;1317;23158;-59
2022/12/06 02:54:04;;;;;;;;;;;;;;;-7.58;75.73;100850.61;105114;1318;22615;-58
2022/12/06 02:56:31;;;;;;;8.90;4.50;;;;;;;-7.59;75.74;100848.73;104980;1323;124570;-58
2022/12/06 02:58:58;;;;;;;9.30;4.50;;;;;;;-7.64;75.62;100840.66;105065;1320;22234;-57
2022/12/06 03:01:44;;;;;;;;;;;;;;;-7.63;75.62;100844.48;104940;1312;138225;-58
2022/12/06 03:04:48;;;;;;;14.40;5.90;;;;;;;-7.65;75.56;100844.05;105102;1320;22307;-58
2022/12/06 03:07:27;;;;;;;11.30;5.30;;;;;;;-7.66;75.61;100849.68;105511;1316;139230;-57
2022/12/06 03:10:04;;;;;;;11.70;5.60;;;;;;;-7.69;75.48;100848.45;105510;1302;22980;-57
2022/12/06 03:12:59;;;;;;;11.00;5.30;;;;;;;-7.71;75.54;100850.52;105395;1308;138289;-57
2022/12/06 03:15:33;;;;;;;10.70;6.00;;;;;;;-7.73;75.55;100846.73;105566;1314;22184;-58
2022/12/06 03:18:06;;;;;;;11.70;6.00;;;;;;;-7.75;75.43;100845.51;105634;1315;22309;-58
2022/12/06 03:20:45;;;;;;;12.60;4.80;;;;;;;-7.77;75.47;100844.73;105627;1306;139335;-58
2022/12/06 03:23:22;;;;;;;12.10;5.70;;;;;;;-7.75;75.49;100845.89;106491;1305;22946;-58
2022/12/06 03:25:49;;;;;;;;;;;;;;;-7.75;75.44;100847.65;106361;1299;139342;-59
2022/12/06 03:28:16;;;;;;;11.30;5.50;;;;;;;-7.77;75.37;100848.07;106436;1308;22401;-59
2022/12/06 03:30:45;;;;;;;14.30;6.60;;;;;;;-7.77;75.40;100847.08;106356;1300;138737;-58
2022/12/06 03:33:12;;;;;;;11.50;5.60;;;;;;;-7.77;75.37;100847.77;106433;1300;22152;-59
2022/12/06 03:35:39;;;;;;;11.30;4.80;;;;;;;-7.79;75.44;100844.79;106355;1293;23130;-58
2022/12/06 03:38:11;;;;;;;11.70;5.90;;;;;;;-7.80;75.56;100842.04;106323;1307;138271;-58
2022/12/06 03:40:38;;;;;;;12.20;5.90;;;;;;;-7.80;75.47;100840.03;106334;1303;23047;-58
2022/12/06 03:43:05;;;;;;;13.00;5.90;;;;;;;-7.83;75.56;100834.59;106295;1305;138319;-58
2022/12/06 03:45:35;;;;;;;;;;;;;;;-7.79;75.45;100839.09;106348;1301;22425;-58
2022/12/06 03:48:07;;;;;;;10.60;5.60;;;;;;;-7.80;75.57;100843.59;106516;1306;22183;-58
2022/12/06 03:50:37;;;;;;;17.90;6.40;;;;;;;-7.81;75.38;100839.04;106403;1305;139143;-58
2022/12/06 03:53:04;;;;;;;15.60;6.70;;;;;;;-7.82;75.31;100838.09;106463;1305;22125;-58
2022/12/06 03:55:31;;;;;;;;;;;;;;;-7.85;75.28;100837.41;106407;1306;138560;-58
2022/12/06 03:57:57;;;;;;;12.60;6.30;;;;;;;-7.86;75.13;100838.73;106564;1305;22298;-58
2022/12/06 04:00:24;;;;;;;;;;;;;;;-7.88;75.19;100836.17;106504;1305;139305;-58
2022/12/06 04:02:51;;;;;;;14.90;6.60;;;;;;;-7.89;75.20;100834.70;106566;1305;22167;-58
2022/12/06 04:05:18;;;;;;;13.90;5.90;;;;;;;-7.91;75.31;100835.52;106504;1305;22335;-58
2022/12/06 04:07:44;;;;;;;;;;;;;;;-7.90;75.26;100835.12;106455;1305;138276;-58
2022/12/06 04:10:11;;;;;;;16.50;7.30;;;;;;;-7.91;75.36;100832.17;106491;1305;22106;-58
2022/12/06 04:15:23;;;;;;;19.80;8.90;;;;;;;-7.91;75.24;100825.66;106169;1304;22518;-59
2022/12/06 04:23:30;;;;;;;23.90;12.30;;;;;;;-7.96;75.49;100813.83;102257;1312;24324;-58
2022/12/06 04:25:56;;;;;;;23.60;9.90;;;;;;;-7.96;75.40;100812.83;101977;1291;140059;-58
2022/12/06 04:39:25;;;;;;;18.20;8.90;;;;;;;-8.00;75.55;100802.69;102239;1292;24220;-58
2022/12/06 04:44:38;;;;;;;17.70;7.90;;;;;;;-8.03;75.68;100801.83;102263;1288;22602;-58
2022/12/06 04:47:05;;;;;;;15.70;6.90;;;;;;;-8.05;75.74;100803.95;102214;1305;22506;-58
2022/12/06 04:49:32;;;;;;;17.20;7.00;;;;;;;-8.07;75.66;100799.50;106172;1312;138262;-59
2022/12/06 04:51:59;;;;;;;17.40;8.10;;;;;;;-8.07;75.66;100800.38;106604;1303;23649;-59
2022/12/06 04:54:28;;;;;;;18.10;7.80;;;;;;;-8.13;75.51;100789.52;106443;1297;140581;-59
2022/12/06 04:56:56;;;;;;;19.60;8.70;;;;;;;-8.12;75.71;100797.73;106521;1305;22297;-59
2022/12/06 04:59:24;;;;;;;15.60;7.40;;;;;;;-8.14;75.51;100796.11;106509;1305;23011;-59
2022/12/06 05:01:51;;;;;;;15.30;6.90;;;;;;;-8.15;75.64;100798.80;106443;1305;138100;-57
2022/12/06 05:04:18;;;;;;;13.20;6.20;;;;;;;-8.16;75.75;100798.69;106525;1305;23022;-58
2022/12/06 05:06:44;;;;;;;14.50;6.30;;;;;;;-8.16;75.79;100793.80;106451;1305;138636;-58
2022/12/06 05:09:11;;;;;;;;;;;;;;;-8.15;75.63;100792.95;106536;1297;22413;-58
2022/12/06 05:11:38;;;;;;;19.10;9.40;;;;;;;-8.17;75.63;100793.99;106508;1291;22867;-58
2022/12/06 05:14:05;;;;;;;17.60;7.50;;;;;;;-8.20;75.69;100793.12;106500;1305;138361;-57
2022/12/06 05:16:31;;;;;;;;;;;;;;;-8.19;75.70;100795.73;103961;1307;22870;-58
2022/12/06 05:18:58;;;;;;;14.20;7.40;;;;;;;-8.19;75.78;100790.80;102147;1297;124828;-59
2022/12/06 05:21:25;;;;;;;13.90;7.50;;;;;;;-8.20;75.88;100789.23;102136;1313;25147;-58
2022/12/06 05:23:55;;;;;;;;;;;;;;;-8.20;75.69;100785.02;102172;1298;22538;-59
2022/12/06 05:26:24;;;;;;;17.20;8.70;;;;;;;-8.20;75.79;100787.88;102139;1307;124600;-59
2022/12/06 05:28:51;;;;;;;26.30;12.10;;;;;;;-8.21;76.02;100784.91;102314;1307;22498;-58
2022/12/06 05:31:17;;;;;;;;;;;;;;;-8.22;76.06;100782.16;102051;1296;140169;-58
2022/12/06 05:33:44;;;;;;;25.80;10.10;;;;;;;-8.23;76.05;100782.07;102091;1307;25412;-59
2022/12/06 05:36:22;;;;;;;17.40;10.00;;;;;;;-8.23;76.20;100776.41;102041;1293;140109;-58
2022/12/06 05:38:49;;;;;;;;;;;;;;;-8.22;76.33;100780.37;106552;1299;22361;-58
2022/12/06 05:41:18;;;;;;;16.30;7.60;;;;;;;-8.21;76.28;100776.67;106547;1305;22328;-59
2022/12/06 05:43:45;;;;;;;28.30;12.90;;;;;;;-8.22;76.32;100774.39;106409;1305;139966;-59
2022/12/06 05:46:12;;;;;;;21.40;9.70;;;;;;;-8.22;76.25;100774.40;106527;1305;22264;-58
2022/12/06 05:48:39;;;;;;;19.60;8.20;;;;;;;-8.25;76.27;100768.80;106429;1305;140214;-59
2022/12/06 05:51:06;;;;;;;;;;;;;;;-8.19;76.69;100771.55;106536;1305;22436;-58
2022/12/06 05:53:33;;;;;;;14.50;6.60;;;;;;;-8.15;76.76;100770.08;106501;1291;23037;-59
2022/12/06 05:56:07;;;;;;;;;;;;;;;-8.13;76.75;100768.02;106431;1305;138598;-58
2022/12/06 05:58:34;;;;;;;39.50;14.00;;;;;;;-8.12;76.96;100771.27;106557;1298;22183;-59
2022/12/06 06:01:01;;;;;;;;;;;;;;;-8.10;77.05;100769.36;106441;1305;139310;-59
2022/12/06 06:03:28;;;;;;;46.90;15.50;;;;;;;-8.12;77.34;100764.38;106463;1290;22137;-59
2022/12/06 06:05:57;;;;;;;25.50;10.60;;;;;;;-8.05;77.51;100765.48;106544;1305;22259;-58
2022/12/06 06:08:24;;;;;;;14.90;7.50;;;;;;;-8.01;77.56;100767.64;106431;1305;139423;-59
2022/12/06 06:10:50;;;;;;;13.20;7.50;;;;;;;-7.96;77.69;100765.90;106573;1289;22299;-59
2022/12/06 06:13:17;;;;;;;;;;;;;;;-7.92;77.72;100762.79;106457;1305;139671;-59
2022/12/06 06:15:44;;;;;;;17.00;7.60;;;;;;;-7.89;77.98;100757.95;106561;1294;22222;-59
2022/12/06 06:18:10;;;;;;;;;;;;;;;-7.85;78.09;100757.15;106510;1298;23092;-59
2022/12/06 06:20:37;;;;;;;25.30;10.40;;;;;;;-7.81;78.27;100755.49;106567;1305;22177;-59
2022/12/06 06:23:04;;;;;;;;;;;;;;;-7.77;78.40;100752.33;106527;1284;23150;-59
2022/12/06 06:25:31;;;;;;;19.60;9.10;;;;;;;-7.74;78.35;100753.04;106449;1297;126218;-59
2022/12/06 06:27:57;;;;;;;;;;;;;;;-7.73;78.54;100750.98;106576;1305;22311;-59
2022/12/06 06:30:24;;;;;;;17.40;7.30;;;;;;;-7.68;78.66;100754.73;106486;1281;125497;-58
2022/12/06 06:32:51;;;;;;;15.90;7.20;;;;;;;-7.64;78.82;100756.31;106528;1284;22160;-58
2022/12/06 06:35:18;;;;;;;16.30;7.80;;;;;;;-7.60;78.91;100751.63;106624;1305;22126;-59
2022/12/06 06:37:44;;;;;;;18.60;7.30;;;;;;;-7.55;79.13;100749.34;106438;1305;138611;-58
2022/12/06 06:40:11;;;;;;;;;;;;;;;-7.52;79.25;100747.17;106633;1297;22490;-58
2022/12/06 06:42:38;;;;;;;89.20;34.00;;;;;;;-7.47;79.29;100741.88;106445;1305;125105;-69
2022/12/06 06:45:07;;;;;;;34.60;12.30;;;;;;;-7.43;79.57;100739.10;104284;1305;24364;-71
2022/12/06 06:47:35;;;;;;;30.00;10.60;;;;;;;-7.38;79.77;100739.29;102198;1308;22525;-70
2022/12/06 06:50:02;;;;;;;;;;;;;;;-7.35;79.78;100734.23;101941;1307;138863;-70
2022/12/06 06:52:29;;;;;;;30.80;10.70;;;;;;;-7.31;79.90;100732.57;102154;1284;24834;-71
2022/12/06 06:54:55;;;;;;;38.70;12.60;;;;;;;-7.29;80.17;100733.45;102187;1298;139046;-70
2022/12/06 06:57:22;;;;;;;40.50;15.30;;;;;;;-7.29;80.14;100738.27;102135;1290;25276;-69
2022/12/06 06:59:49;;;;;;;24.30;10.20;;;;;;;-7.28;80.26;100737.61;102191;1301;24269;-69
2022/12/06 07:02:16;;;;;;;29.00;12.50;;;;;;;-7.26;80.47;100740.79;102171;1298;138515;-69
2022/12/06 07:04:43;;;;;;;22.10;9.20;;;;;;;-7.23;80.70;100734.90;102267;1298;25613;-69
2022/12/06 07:07:11;;;;;;;40.90;17.70;;;;;;;-7.20;80.58;100736.95;102116;1291;138277;-70
2022/12/06 07:09:46;;;;;;;23.90;11.50;;;;;;;-7.15;80.80;100731.17;102221;1290;24974;-68
2022/12/06 07:12:14;;;;;;;22.30;9.50;;;;;;;-7.11;81.19;100734.59;102115;1294;140314;-67
2022/12/06 07:14:41;;;;;;;16.10;8.80;;;;;;;-7.08;81.22;100731.88;106543;1291;22161;-70
2022/12/06 07:17:07;;;;;;;;;;;;;;;-7.03;81.48;100734.81;106538;1298;22344;-72
2022/12/06 07:19:34;;;;;;;10.30;6.20;;;;;;;-6.97;81.51;100729.45;106418;1289;124713;-72
2022/12/06 07:22:01;;;;;;;;;;;;;;;-6.93;81.68;100722.95;106546;1297;22425;-71
2022/12/06 07:24:28;;;;;;;17.90;8.50;;;;;;;-6.88;81.79;100721.13;106426;1294;125593;-71
2022/12/06 07:26:56;;;;;;;;;;;;;;;-6.81;81.85;100722.02;106561;1305;22336;-71
2022/12/06 07:29:22;;;;;;;;;;;;;;;-6.76;81.91;100722.66;106597;1305;22391;-67
2022/12/06 07:31:49;;;;;;;60.50;26.40;;;;;;;-6.69;82.21;100717.74;106493;1299;124440;-69
2022/12/06 07:34:16;;;;;;;40.20;16.20;;;;;;;-6.63;82.35;100718.54;106518;1305;23172;-67
2022/12/06 07:36:43;;;;;;;26.50;13.70;;;;;;;-6.58;82.26;100720.23;106505;1305;138983;-68
2022/12/06 07:39:09;;;;;;;46.80;19.50;;;;;;;-6.53;82.11;100720.39;106565;1305;22134;-67
2022/12/06 07:47:35;;;;;;;40.50;13.80;;;;;;;-6.39;82.63;100720.88;102206;1296;22481;-68
2022/12/06 07:50:03;;;;;;;23.40;9.80;;;;;;;-6.35;82.64;100716.48;106439;1301;139446;-68
2022/12/06 07:52:33;;;;;;;21.20;11.30;;;;;;;-6.31;82.66;100713.68;106542;1305;22199;-68
2022/12/06 07:55:00;;;;;;;21.60;11.00;;;;;;;-6.28;82.60;100712.36;106437;1305;139119;-68
2022/12/06 07:57:27;;;;;;;;;;;;;;;-6.25;82.85;100713.55;106581;1299;22475;-68
2022/12/06 07:59:54;;;;;;;46.00;17.60;;;;;;;-6.21;82.62;100709.21;106541;1291;22136;-68
2022/12/06 08:02:24;;;;;;;38.70;14.90;;;;;;;-6.20;82.65;100709.20;106416;1290;139589;-68
2022/12/06 08:04:51;;;;;;;104.30;36.00;;;;;;;-6.17;82.74;100706.73;106548;1305;22847;-69
2022/12/06 08:07:19;;;;;;;30.50;12.40;;;;;;;-6.14;82.98;100700.25;106434;1297;139418;-68
2022/12/06 08:09:46;;;;;;;22.30;11.20;;;;;;;-6.10;83.06;100696.83;106526;1305;22150;-67
2022/12/06 08:12:13;;;;;;;17.90;9.60;;;;;;;-6.06;82.98;100700.02;106533;1305;22206;-68
2022/12/06 08:14:40;;;;;;;18.60;9.10;;;;;;;-6.01;83.30;100694.67;106534;1305;22157;-69
2022/12/06 08:17:07;;;;;;;18.10;8.10;;;;;;;-5.96;83.28;100690.05;106532;1297;22268;-70
2022/12/06 08:19:33;;;;;;;26.50;11.40;;;;;;;-5.91;83.21;100683.95;106514;1298;138735;-69
2022/12/06 08:22:00;;;;;;;18.60;7.80;;;;;;;-5.89;83.43;100679.13;106505;1305;22212;-69
2022/12/06 08:24:27;;;;;;;11.90;6.80;;;;;;;-5.84;83.42;100676.64;106504;1287;139952;-69
2022/12/06 08:26:54;;;;;;;14.50;7.70;;;;;;;-5.81;83.51;100671.38;106550;1291;22094;-69
2022/12/06 08:29:21;;;;;;;19.20;8.90;;;;;;;-5.77;83.49;100669.52;106537;1305;22331;-70
2022/12/06 08:31:48;;;;;;;22.00;11.40;;;;;;;-5.74;83.57;100670.66;106451;1305;138481;-69
2022/12/06 08:34:15;;;;;;;;;;;;;;;-5.71;83.54;100669.50;106581;1305;22380;-70
2022/12/06 08:36:42;;;;;;;17.50;8.60;;;;;;;-5.65;83.74;100667.81;106488;1297;125653;-69
2022/12/06 08:39:09;;;;;;;;;;;;;;;-5.61;83.69;100663.91;106605;1296;22401;-66
2022/12/06 08:41:54;;;;;;;79.10;35.80;;;;;;;-5.57;83.62;100659.34;106582;1297;22161;-57
2022/12/06 08:44:20;;;;;;;25.20;11.10;;;;;;;-5.52;83.73;100657.84;106410;1298;138929;-57
2022/12/06 08:46:47;;;;;;;19.40;7.90;;;;;;;-5.45;83.78;100653.19;103439;1293;22501;-56
2022/12/06 08:49:15;;;;;;;14.10;7.00;;;;;;;-5.37;83.94;100648.39;102117;1313;138873;-57
2022/12/06 08:51:42;;;;;;;14.20;6.10;;;;;;;-5.30;83.90;100646.98;106268;1307;22389;-58
2022/12/06 08:54:11;;;;;;;9.30;5.00;;;;;;;-5.24;83.59;100646.30;106556;1305;22107;-56
2022/12/06 08:56:38;;;;;;;12.10;5.60;;;;;;;-5.21;83.49;100643.54;106378;1305;138217;-57
2022/12/06 08:59:05;;;;;;;;;;;;;;;-5.19;83.49;100644.05;106590;1305;22377;-57
2022/12/06 09:01:32;;;;;;;19.20;7.50;;;;;;;-5.22;83.11;100630.87;106531;1297;125471;-57
2022/12/06 09:04:05;;;;;;;14.50;4.70;;;;;;;-5.17;83.29;100640.88;106551;1304;22204;-58
2022/12/06 09:06:32;;;;;;;15.50;7.50;;;;;;;-5.15;83.26;100639.49;106444;1291;139648;-58
2022/12/06 09:08:58;;;;;;;11.90;6.30;;;;;;;-5.12;83.25;100635.33;106540;1299;22238;-59
2022/12/06 09:11:25;;;;;;;14.40;6.70;;;;;;;-5.12;83.14;100628.30;106523;1305;22129;-58
2022/12/06 09:13:52;;;;;;;;;;;;;;;-5.05;83.21;100637.09;106406;1299;138787;-58
2022/12/06 09:16:20;;;;;;;11.60;7.20;;;;;;;-5.04;83.11;100632.15;106513;1296;22314;-58
2022/12/06 09:18:47;;;;;;;21.70;8.60;;;;;;;-5.05;82.83;100624.33;106441;1305;138934;-58
2022/12/06 09:21:15;;;;;;;;;;;;;;;-5.11;82.75;100620.77;106464;1292;22441;-57
2022/12/06 09:23:42;;;;;;;13.80;6.50;;;;;;;-5.13;82.96;100617.92;106558;1287;22613;-57
2022/12/06 09:26:09;;;;;;;;;;;;;;;-5.13;83.08;100620.39;106440;1282;139405;-57
2022/12/06 09:28:37;;;;;;;17.90;7.60;;;;;;;-5.11;83.10;100613.33;106505;1305;22233;-57
2022/12/06 09:31:05;;;;;;;17.80;6.60;;;;;;;-5.09;82.99;100613.17;106455;1298;139465;-57
2022/12/06 09:33:32;;;;;;;9.30;4.90;;;;;;;-5.09;82.88;100615.45;104523;1305;24252;-58
2022/12/06 09:36:00;;;;;;;9.00;5.30;;;;;;;-5.11;82.83;100612.58;102089;1291;25251;-58
2022/12/06 09:38:28;;;;;;;12.40;7.00;;;;;;;-5.12;82.82;100607.17;102016;1292;139007;-57
2022/12/06 09:41:17;;;;;;;9.80;4.90;;;;;;;-5.10;82.78;100609.53;106448;1308;22144;-57
2022/12/06 09:44:11;;;;;;;13.50;5.50;;;;;;;-5.08;82.71;100602.98;106326;1308;138926;-56
2022/12/06 09:47:16;;;;;;;7.50;4.70;;;;;;;-5.10;82.54;100598.55;106517;1298;22362;-56
2022/12/06 09:50:13;;;;;;;11.60;5.70;;;;;;;-5.08;82.58;100597.66;106468;1305;138883;-56
2022/12/06 09:52:50;;;;;;;6.70;4.00;;;;;;;-5.13;82.53;100584.02;106586;1305;22193;-56
2022/12/06 09:55:42;;;;;;;9.40;5.50;;;;;;;-5.08;82.28;100587.30;106289;1306;138248;-56
2022/12/06 09:58:22;;;;;;;6.70;4.50;;;;;;;-5.04;82.08;100592.83;106423;1300;23373;-57
2022/12/06 10:01:02;;;;;;;9.30;4.80;;;;;;;-5.02;81.94;100585.79;106423;1305;139887;-57
2022/12/06 10:03:34;;;;;;;10.70;5.40;;;;;;;-5.01;81.99;100578.73;106572;1297;23012;-57
2022/12/06 10:06:02;;;;;;;8.30;4.80;;;;;;;-4.98;81.94;100577.06;106449;1306;23521;-56
2022/12/06 10:08:51;;;;;;;10.70;7.00;;;;;;;-4.93;82.07;100571.52;106358;1306;138985;-58
2022/12/06 10:11:40;;;;;;;10.80;5.30;;;;;;;-4.87;82.06;100571.73;106527;1306;22945;-57
2022/12/06 10:14:29;;;;;;;12.30;6.10;;;;;;;-4.84;81.90;100563.84;106400;1297;140001;-58
2022/12/06 10:17:02;;;;;;;7.60;4.40;;;;;;;-4.82;81.45;100564.85;103353;1287;25698;-57
2022/12/06 10:19:51;;;;;;;5.70;3.70;;;;;;;-4.82;81.16;100561.22;106441;1306;138972;-57
2022/12/06 10:22:46;;;;;;;9.20;5.00;;;;;;;-4.83;80.96;100561.64;105684;1299;1177827;-56
2022/12/06 10:27:38;;;;;;;13.10;7.00;;;;;;;-4.81;80.69;100555.90;99571;1333;545798;-56
2022/12/06 10:30:12;;;;;;;14.80;7.00;;;;;;;-4.84;80.74;100552.70;106105;1306;23597;-57
2022/12/06 10:32:50;;;;;;;22.40;10.70;;;;;;;-4.85;80.50;100549.93;105811;1309;23058;-57
2022/12/06 10:35:23;;;;;;;17.90;7.50;;;;;;;-4.88;80.65;100547.38;105759;1304;22145;-57
2022/12/06 17:25:24;;;;;;;17.80;9.50;;;;;;;-5.03;82.54;100246.52;99838;1326;557660;-60
2022/12/06 17:27:51;;;;;;;15.90;9.00;;;;;;;-4.86;82.06;100244.39;100815;1300;113155;-60
2022/12/06 17:30:18;;;;;;;;;;;;;;;-4.81;81.99;100241.77;100948;1301;138594;-60
2022/12/06 17:32:46;;;;;;;14.10;8.20;;;;;;;-4.85;81.82;100226.00;105126;1308;22181;-60
2022/12/06 17:35:13;;;;;;;14.70;8.70;;;;;;;-4.74;81.68;100230.10;105465;1315;22123;-60
2022/12/06 17:37:39;;;;;;;16.40;9.00;;;;;;;-4.70;81.65;100233.13;105393;1316;139455;-60
2022/12/06 17:40:07;;;;;;;11.60;6.90;;;;;;;-4.66;81.55;100235.06;105558;1309;22146;-60
2022/12/06 17:45:19;;;;;;;19.80;9.60;;;;;;;-4.59;81.37;100229.33;105259;1317;25427;-61
2022/12/06 17:47:50;;;;;;;16.20;7.60;;;;;;;-4.57;81.18;100229.04;105096;1314;22230;-59
2022/12/06 17:50:17;;;;;;;;;;;;;;;-4.56;81.11;100227.39;105281;1316;22363;-59
2022/12/06 17:52:44;;;;;;;11.70;6.10;;;;;;;-4.57;81.02;100223.19;105539;1315;22162;-60
2022/12/06 17:55:11;;;;;;;16.20;8.50;;;;;;;-4.57;80.83;100220.89;105537;1316;138113;-60
2022/12/06 17:57:38;;;;;;;15.10;8.50;;;;;;;-4.56;81.01;100219.45;105641;1314;22149;-61
2022/12/06 18:00:06;;;;;;;13.00;7.50;;;;;;;-4.56;80.91;100216.39;105924;1311;137694;-60
2022/12/06 18:02:32;;;;;;;11.30;6.90;;;;;;;-4.55;80.94;100210.85;105965;1311;23217;-60
2022/12/06 18:04:59;;;;;;;;;;;;;;;-4.56;80.87;100212.86;106634;1302;22335;-60
2022/12/06 18:07:27;;;;;;;12.00;7.10;;;;;;;-4.58;80.91;100208.61;106532;1297;123306;-59
2022/12/06 18:09:53;;;;;;;;;;;;;;;-4.59;80.91;100206.95;106639;1279;22342;-60
2022/12/06 18:12:20;;;;;;;21.80;6.90;;;;;;;-4.60;80.91;100200.80;106550;1302;124364;-60
2022/12/06 18:14:47;;;;;;;10.60;6.10;;;;;;;-4.60;80.76;100198.70;106618;1297;22864;-59
2022/12/06 18:17:14;;;;;;;34.80;14.70;;;;;;;-4.61;80.78;100198.09;106589;1297;22191;-58
2022/12/06 18:19:42;;;;;;;20.90;8.80;;;;;;;-4.61;80.95;100195.23;106452;1305;138480;-58
2022/12/06 18:22:09;;;;;;;13.20;7.40;;;;;;;-4.58;80.96;100190.75;106522;1302;23496;-58
2022/12/06 18:24:36;;;;;;;11.30;6.40;;;;;;;-4.57;80.71;100186.73;106472;1286;139160;-58
2022/12/06 18:27:03;;;;;;;12.40;7.40;;;;;;;-4.55;80.98;100187.95;106458;1307;22241;-57
2022/12/06 18:29:30;;;;;;;12.60;7.80;;;;;;;-4.57;80.96;100185.80;106500;1298;22240;-58
2022/12/06 18:31:57;;;;;;;;;;;;;;;-4.51;80.96;100190.75;106422;1305;138731;-58
2022/12/06 18:34:24;;;;;;;8.30;5.90;;;;;;;-4.51;80.87;100190.73;106458;1307;22414;-58
2022/12/06 18:36:51;;;;;;;;;;;;;;;-4.52;80.93;100193.83;106436;1301;137049;-58
2022/12/06 18:39:23;;;;;;;11.70;7.00;;;;;;;-4.51;80.88;100189.38;106537;1297;22219;-58
2022/12/06 18:41:51;;;;;;;15.60;9.40;;;;;;;-4.52;80.89;100183.47;106544;1306;22203;-59
2022/12/06 18:44:18;;;;;;;10.30;6.90;;;;;;;-4.52;80.94;100182.41;106335;1307;138364;-58
2022/12/06 18:46:44;;;;;;;;;;;;;;;-4.52;80.91;100177.76;106441;1293;22377;-58
2022/12/06 18:49:11;;;;;;;15.40;9.30;;;;;;;-4.52;80.84;100169.78;106348;1284;124833;-58
2022/12/06 18:51:38;;;;;;;16.90;9.80;;;;;;;-4.53;80.99;100164.69;106460;1282;22264;-57